Time;durP1;ratioP1;P1;durP2;ratioP2;P2;SDS_P1;SDS_P2;PMS_P1;PMS_P2;Temp;Humidity;BMP_temperature;BMP_pressure;BME280_temperature;BME280_humidity;BME280_pressure;Samples;Min_cycle;Max_cycle;Signal;HPM_P1;HPM_P2
2023/05/29 00:00:56;;;;;;;16.17;6.45;;;;;;;;;;5009883;28;20046;-81
2023/05/29 00:03:23;;;;;;;12.75;6.22;;;;;;;;;;4992823;28;20045;-82
2023/05/29 00:05:50;;;;;;;12.38;6.05;;;;;;;;;;5010455;28;20180;-81
2023/05/29 00:08:16;;;;;;;13.02;5.95;;;;;;;;;;4995857;28;20093;-81
2023/05/29 00:10:46;;;;;;;11.25;6.00;;;;;;;;;;4990463;28;20053;-80
2023/05/29 00:13:12;;;;;;;18.73;6.85;;;;;;;;;;4991164;28;20084;-78
2023/05/29 00:15:39;;;;;;;12.25;6.22;;;;;;;;;;4989218;28;20039;-79
2023/05/29 00:18:06;;;;;;;12.50;6.82;;;;;;;;;;4989851;28;20053;-79
2023/05/29 00:20:34;;;;;;;16.05;6.82;;;;;;;;;;5006246;28;20523;-78
2023/05/29 00:23:05;;;;;;;13.45;6.38;;;;;;;;;;4990005;28;20431;-79
2023/05/29 00:25:32;;;;;;;14.95;6.88;;;;;;;;;;4990808;28;20042;-79
2023/05/29 00:27:59;;;;;;;13.65;6.47;;;;;;;;;;4996677;28;20050;-82
2023/05/29 00:30:26;;;;;;;13.60;6.68;;;;;;;;;;4997781;28;20053;-80
2023/05/29 00:32:56;;;;;;;14.50;7.10;;;;;;;;;;4992366;28;20050;-81
2023/05/29 00:35:23;;;;;;;14.40;6.50;;;;;;;;;;4976329;28;20049;-82
2023/05/29 00:37:49;;;;;;;17.90;7.15;;;;;;;;;;4993509;28;20050;-82
2023/05/29 00:40:16;;;;;;;13.20;6.93;;;;;;;;;;4992103;28;20046;-81
2023/05/29 00:42:42;;;;;;;12.38;6.35;;;;;;;;;;5009207;28;20057;-81
2023/05/29 00:45:09;;;;;;;15.05;7.00;;;;;;;;;;5007428;28;20074;-82
2023/05/29 00:47:36;;;;;;;14.45;6.85;;;;;;;;;;4989795;28;20112;-81
2023/05/29 00:50:03;;;;;;;14.65;7.28;;;;;;;;;;4990880;28;20063;-80
2023/05/29 00:52:30;;;;;;;14.30;6.97;;;;;;;;;;4992981;28;20646;-83
2023/05/29 00:54:57;;;;;;;13.75;7.25;;;;;;;;;;5008496;28;20621;-82
2023/05/29 00:57:23;;;;;;;13.65;6.55;;;;;;;;;;4993470;28;20058;-82
2023/05/29 00:59:50;;;;;;;18.95;6.95;;;;;;;;;;4990760;28;20054;-82
2023/05/29 01:02:18;;;;;;;12.32;6.35;;;;;;;;;;4992318;28;20050;-82
2023/05/29 01:04:45;;;;;;;13.20;6.95;;;;;;;;;;4993997;28;20054;-80
2023/05/29 01:07:12;;;;;;;20.20;6.80;;;;;;;;;;5000023;28;20046;-82
2023/05/29 01:09:39;;;;;;;13.98;7.18;;;;;;;;;;5012507;28;20477;-81
2023/05/29 01:12:08;;;;;;;15.13;7.28;;;;;;;;;;5011033;28;20403;-82
2023/05/29 01:14:41;;;;;;;14.07;7.40;;;;;;;;;;5011696;28;20038;-82
2023/05/29 01:17:13;;;;;;;14.80;8.15;;;;;;;;;;5014814;28;20055;-80
2023/05/29 01:19:47;;;;;;;15.82;7.32;;;;;;;;;;5041315;28;20046;-81
2023/05/29 01:22:33;;;;;;;19.25;6.95;;;;;;;;;;5030880;28;20052;-80
2023/05/29 01:25:21;;;;;;;18.42;7.32;;;;;;;;;;5012127;28;20045;-80
2023/05/29 01:27:49;;;;;;;15.85;7.65;;;;;;;;;;5028982;28;20072;-81
2023/05/29 01:30:16;;;;;;;13.73;7.20;;;;;;;;;;5029270;28;20445;-79
2023/05/29 01:32:42;;;;;;;13.95;7.63;;;;;;;;;;5028036;28;20048;-80
2023/05/29 01:35:13;;;;;;;17.80;7.55;;;;;;;;;;5026953;28;20127;-80
2023/05/29 01:37:40;;;;;;;11.50;7.20;;;;;;;;;;5027680;28;20087;-79
2023/05/29 01:40:08;;;;;;;12.77;7.10;;;;;;;;;;5027256;28;20041;-82
2023/05/29 01:42:34;;;;;;;14.13;7.25;;;;;;;;;;5027270;28;20080;-81
2023/05/29 01:45:01;;;;;;;13.35;7.20;;;;;;;;;;5028210;28;20042;-81
2023/05/29 01:47:28;;;;;;;18.13;7.57;;;;;;;;;;5028817;28;20041;-79
2023/05/29 01:49:55;;;;;;;12.43;7.28;;;;;;;;;;5027062;28;20041;-81
2023/05/29 01:52:22;;;;;;;11.98;6.57;;;;;;;;;;5034339;28;20049;-79
2023/05/29 01:54:49;;;;;;;11.02;6.32;;;;;;;;;;5039280;28;20497;-81
2023/05/29 01:57:16;;;;;;;12.38;6.65;;;;;;;;;;5030895;28;20069;-82
2023/05/29 01:59:42;;;;;;;16.13;7.57;;;;;;;;;;5029192;28;20041;-81
2023/05/29 02:02:10;;;;;;;12.93;7.35;;;;;;;;;;5030729;28;20045;-82
2023/05/29 02:04:36;;;;;;;12.88;6.90;;;;;;;;;;5004829;28;20683;-81
2023/05/29 02:07:03;;;;;;;12.65;7.10;;;;;;;;;;5009847;28;20073;-79
2023/05/29 02:09:30;;;;;;;14.93;7.53;;;;;;;;;;5010992;28;20121;-82
2023/05/29 02:12:00;;;;;;;15.80;6.90;;;;;;;;;;5012508;28;20121;-81
2023/05/29 02:14:31;;;;;;;16.00;7.72;;;;;;;;;;5029357;28;20060;-81
2023/05/29 02:16:58;;;;;;;14.93;7.38;;;;;;;;;;5028837;28;20117;-81
2023/05/29 02:19:26;;;;;;;14.68;7.60;;;;;;;;;;5028472;28;20041;-80
2023/05/29 02:21:53;;;;;;;16.10;7.35;;;;;;;;;;5025779;28;20045;-80
2023/05/29 02:24:20;;;;;;;15.02;7.65;;;;;;;;;;5027023;28;20033;-81
2023/05/29 02:26:48;;;;;;;16.40;7.80;;;;;;;;;;5010165;28;20421;-80
2023/05/29 02:29:15;;;;;;;16.63;8.32;;;;;;;;;;5010654;28;20509;-81
2023/05/29 02:31:41;;;;;;;14.85;8.00;;;;;;;;;;5027496;28;20038;-80
2023/05/29 02:34:08;;;;;;;13.43;7.25;;;;;;;;;;5029620;28;20410;-81
2023/05/29 02:36:38;;;;;;;15.93;7.35;;;;;;;;;;5029641;28;20041;-82
2023/05/29 02:39:07;;;;;;;15.43;7.97;;;;;;;;;;5029858;28;20041;-82
2023/05/29 02:41:34;;;;;;;15.85;7.20;;;;;;;;;;5035454;28;20053;-80
2023/05/29 02:44:00;;;;;;;13.15;6.95;;;;;;;;;;5033110;28;20104;-81
2023/05/29 02:46:27;;;;;;;14.05;7.10;;;;;;;;;;5012806;28;20064;-81
2023/05/29 02:48:54;;;;;;;16.23;7.82;;;;;;;;;;5012499;28;20103;-82
2023/05/29 02:51:21;;;;;;;14.93;7.72;;;;;;;;;;5029217;28;20061;-81
2023/05/29 02:53:48;;;;;;;12.43;7.03;;;;;;;;;;5028949;28;20069;-81
2023/05/29 02:56:15;;;;;;;14.50;7.20;;;;;;;;;;5035767;28;20052;-81
2023/05/29 02:58:42;;;;;;;15.00;7.80;;;;;;;;;;5031316;28;20045;-79
2023/05/29 03:01:09;;;;;;;13.68;7.55;;;;;;;;;;5017465;28;20112;-79
2023/05/29 03:03:36;;;;;;;12.25;6.38;;;;;;;;;;4977817;28;20077;-80
2023/05/29 03:06:02;;;;;;;12.27;6.90;;;;;;;;;;5006463;28;20041;-79
2023/05/29 03:08:29;;;;;;;16.50;7.80;;;;;;;;;;5007716;28;20095;-80
2023/05/29 03:10:57;;;;;;;13.15;7.18;;;;;;;;;;4991523;28;20053;-80
2023/05/29 03:13:24;;;;;;;12.90;7.13;;;;;;;;;;5007219;28;20104;-80
2023/05/29 03:15:58;;;;;;;15.45;8.25;;;;;;;;;;5005778;28;20154;-81
2023/05/29 03:18:25;;;;;;;16.77;8.52;;;;;;;;;;5009208;28;20149;-81
2023/05/29 03:20:53;;;;;;;14.02;7.50;;;;;;;;;;5009670;28;20168;-81
2023/05/29 03:23:21;;;;;;;20.40;8.15;;;;;;;;;;5008828;28;20044;-82
2023/05/29 03:25:48;;;;;;;20.27;8.35;;;;;;;;;;5008779;28;20109;-80
2023/05/29 03:28:16;;;;;;;15.88;8.25;;;;;;;;;;4993890;28;20469;-81
2023/05/29 03:30:43;;;;;;;13.80;8.23;;;;;;;;;;5011950;28;20050;-79
2023/05/29 03:33:13;;;;;;;15.75;7.90;;;;;;;;;;5001338;28;20077;-81
2023/05/29 03:36:02;;;;;;;15.40;8.20;;;;;;;;;;5014550;28;20057;-79
2023/05/29 03:38:29;;;;;;;22.90;9.43;;;;;;;;;;5014271;28;20395;-81
2023/05/29 03:40:58;;;;;;;15.77;8.35;;;;;;;;;;4998497;28;20458;-81
2023/05/29 03:43:27;;;;;;;15.40;8.25;;;;;;;;;;5014182;28;20112;-80
2023/05/29 03:45:53;;;;;;;16.42;9.05;;;;;;;;;;4997212;28;20770;-81
2023/05/29 03:48:20;;;;;;;13.60;8.32;;;;;;;;;;4996515;28;20068;-79
2023/05/29 03:50:47;;;;;;;16.90;8.95;;;;;;;;;;4995666;28;20068;-79
2023/05/29 03:53:19;;;;;;;19.92;9.48;;;;;;;;;;4993207;28;20042;-80
2023/05/29 03:55:46;;;;;;;16.35;8.70;;;;;;;;;;5008680;28;20079;-79
2023/05/29 03:58:14;;;;;;;18.17;8.65;;;;;;;;;;5010252;28;20042;-79
2023/05/29 04:00:40;;;;;;;18.17;8.55;;;;;;;;;;5020292;28;20046;-80
2023/05/29 04:03:08;;;;;;;15.85;8.75;;;;;;;;;;5016724;28;20046;-82
2023/05/29 04:05:35;;;;;;;16.63;8.40;;;;;;;;;;5012245;28;20042;-81
2023/05/29 04:08:04;;;;;;;15.90;8.60;;;;;;;;;;5011517;28;20482;-81
2023/05/29 04:10:41;;;;;;;18.50;8.27;;;;;;;;;;5011176;28;20045;-81
2023/05/29 04:13:08;;;;;;;14.13;7.63;;;;;;;;;;5011796;28;20066;-80
2023/05/29 04:15:37;;;;;;;13.20;7.28;;;;;;;;;;5011426;28;20061;-82
2023/05/29 04:18:04;;;;;;;11.70;6.95;;;;;;;;;;5011066;28;20105;-80
2023/05/29 04:20:32;;;;;;;17.75;8.20;;;;;;;;;;5009055;28;20044;-81
2023/05/29 04:22:59;;;;;;;13.98;7.65;;;;;;;;;;4994010;28;20052;-80
2023/05/29 04:25:26;;;;;;;13.98;7.40;;;;;;;;;;5009994;28;20056;-81
2023/05/29 04:27:53;;;;;;;17.58;7.72;;;;;;;;;;4994392;28;20053;-81
2023/05/29 04:30:21;;;;;;;11.65;7.18;;;;;;;;;;5010692;28;20037;-80
2023/05/29 04:32:48;;;;;;;15.38;7.50;;;;;;;;;;5011715;28;20041;-81
2023/05/29 04:35:15;;;;;;;12.52;7.20;;;;;;;;;;5014611;28;20043;-81
2023/05/29 04:37:53;;;;;;;15.32;8.43;;;;;;;;;;5031087;28;20041;-81
2023/05/29 04:40:20;;;;;;;14.68;7.82;;;;;;;;;;5031036;28;20061;-80
2023/05/29 04:42:47;;;;;;;14.18;7.65;;;;;;;;;;5030106;28;20529;-80
2023/05/29 04:45:14;;;;;;;13.65;7.30;;;;;;;;;;5028454;28;20045;-81
2023/05/29 04:47:44;;;;;;;15.82;8.00;;;;;;;;;;5029830;28;20536;-80
2023/05/29 04:50:12;;;;;;;16.75;7.95;;;;;;;;;;5039866;28;20062;-79
2023/05/29 04:52:41;;;;;;;16.10;8.00;;;;;;;;;;5041073;28;20442;-81
2023/05/29 04:55:13;;;;;;;18.80;8.05;;;;;;;;;;5042310;28;20091;-80
2023/05/29 04:57:41;;;;;;;15.35;6.55;;;;;;;;;;5031945;28;20114;-80
2023/05/29 05:00:13;;;;;;;13.48;7.25;;;;;;;;;;5012655;28;20041;-80
2023/05/29 05:02:43;;;;;;;11.30;6.20;;;;;;;;;;5027826;28;20232;-80
2023/05/29 05:05:10;;;;;;;13.73;6.18;;;;;;;;;;4987824;28;20108;-80
2023/05/29 05:07:37;;;;;;;12.63;6.68;;;;;;;;;;5008560;28;20053;-82
2023/05/29 05:10:04;;;;;;;13.13;6.50;;;;;;;;;;4991185;28;20109;-80
2023/05/29 05:12:31;;;;;;;13.20;6.72;;;;;;;;;;5007315;28;20072;-80
2023/05/29 05:15:03;;;;;;;12.98;6.03;;;;;;;;;;5001113;28;20506;-81
2023/05/29 05:17:30;;;;;;;11.25;5.60;;;;;;;;;;5010054;28;20081;-81
2023/05/29 05:19:56;;;;;;;12.23;5.97;;;;;;;;;;5010350;28;20045;-80
2023/05/29 05:22:23;;;;;;;10.82;6.43;;;;;;;;;;5009251;28;20038;-80
2023/05/29 05:24:52;;;;;;;12.60;6.57;;;;;;;;;;5006268;28;20050;-80
2023/05/29 05:27:19;;;;;;;11.77;6.28;;;;;;;;;;5006789;28;20046;-80
2023/05/29 05:29:46;;;;;;;10.63;6.07;;;;;;;;;;5006787;28;20057;-80
2023/05/29 05:32:13;;;;;;;13.60;6.25;;;;;;;;;;4991097;28;20042;-80
2023/05/29 05:34:41;;;;;;;10.80;6.10;;;;;;;;;;5007216;28;20096;-79
2023/05/29 05:37:08;;;;;;;13.75;6.70;;;;;;;;;;4997207;28;20072;-80
2023/05/29 05:39:36;;;;;;;12.80;6.57;;;;;;;;;;5013604;28;20100;-82
2023/05/29 05:42:03;;;;;;;13.45;6.93;;;;;;;;;;5005064;28;20050;-82
2023/05/29 05:44:44;;;;;;;17.17;6.03;;;;;;;;;;4989828;28;20054;-81
2023/05/29 05:47:13;;;;;;;13.38;6.28;;;;;;;;;;4988311;28;20076;-81
2023/05/29 05:49:40;;;;;;;14.27;6.32;;;;;;;;;;5004340;28;20046;-81
2023/05/29 05:52:10;;;;;;;9.57;5.80;;;;;;;;;;4986846;28;20520;-81
2023/05/29 05:54:36;;;;;;;13.43;6.43;;;;;;;;;;5000395;28;20368;-81
2023/05/29 05:57:03;;;;;;;14.70;6.38;;;;;;;;;;5004074;28;20473;-80
2023/05/29 05:59:35;;;;;;;14.57;6.57;;;;;;;;;;5002018;28;20177;-78
2023/05/29 06:02:03;;;;;;;11.80;6.03;;;;;;;;;;5012273;28;20081;-79
2023/05/29 06:04:35;;;;;;;12.80;6.05;;;;;;;;;;5015724;28;20046;-82
2023/05/29 06:07:02;;;;;;;15.38;6.70;;;;;;;;;;4991250;28;20058;-81
2023/05/29 06:09:28;;;;;;;10.88;5.85;;;;;;;;;;5026697;28;20042;-79
2023/05/29 06:11:58;;;;;;;11.07;5.68;;;;;;;;;;5014700;28;20061;-80
2023/05/29 06:14:26;;;;;;;12.75;5.60;;;;;;;;;;5009548;28;20498;-80
2023/05/29 06:16:53;;;;;;;12.38;5.63;;;;;;;;;;5008525;28;20054;-80
2023/05/29 06:19:20;;;;;;;12.50;5.55;;;;;;;;;;4998993;28;20049;-79
2023/05/29 06:21:54;;;;;;;16.75;5.38;;;;;;;;;;4993362;28;20163;-80
2023/05/29 06:24:20;;;;;;;11.32;5.63;;;;;;;;;;5010663;28;20937;-80
2023/05/29 06:26:47;;;;;;;12.70;5.63;;;;;;;;;;4991216;28;20049;-83
2023/05/29 06:29:15;;;;;;;13.20;5.68;;;;;;;;;;5009401;28;20045;-81
2023/05/29 06:31:41;;;;;;;10.38;5.03;;;;;;;;;;5007524;28;20060;-81
2023/05/29 06:34:08;;;;;;;13.15;4.95;;;;;;;;;;4991532;28;20697;-81
2023/05/29 06:36:34;;;;;;;10.18;5.18;;;;;;;;;;5007051;28;20066;-81
2023/05/29 06:39:01;;;;;;;11.20;5.22;;;;;;;;;;4985471;28;20399;-81
2023/05/29 06:41:28;;;;;;;12.60;5.30;;;;;;;;;;5008816;28;20053;-83
2023/05/29 06:43:54;;;;;;;11.07;5.13;;;;;;;;;;4988805;28;20058;-79
2023/05/29 06:46:21;;;;;;;9.65;5.22;;;;;;;;;;4979516;28;20188;-83
2023/05/29 06:48:48;;;;;;;9.38;4.57;;;;;;;;;;5016238;28;20099;-82
2023/05/29 06:51:15;;;;;;;11.88;5.20;;;;;;;;;;5007314;28;20457;-79
2023/05/29 06:54:02;;;;;;;11.27;4.95;;;;;;;;;;4996801;28;20046;-82
2023/05/29 06:56:30;;;;;;;11.65;5.18;;;;;;;;;;4978448;28;20046;-81
2023/05/29 06:58:56;;;;;;;10.52;4.45;;;;;;;;;;4998698;28;20030;-82
2023/05/29 07:01:23;;;;;;;12.88;4.88;;;;;;;;;;4996448;28;20054;-79
2023/05/29 07:04:02;;;;;;;7.85;4.55;;;;;;;;;;4983794;28;20050;-78
2023/05/29 07:06:29;;;;;;;8.98;3.97;;;;;;;;;;4992407;28;20111;-78
2023/05/29 07:08:57;;;;;;;10.68;4.50;;;;;;;;;;5006820;28;20033;-83
2023/05/29 07:11:25;;;;;;;10.75;4.20;;;;;;;;;;5000602;28;20058;-79
2023/05/29 07:13:53;;;;;;;10.73;4.38;;;;;;;;;;5009965;28;20046;-82
2023/05/29 07:16:20;;;;;;;10.13;4.68;;;;;;;;;;5008809;28;20447;-83
2023/05/29 07:19:00;;;;;;;10.90;4.80;;;;;;;;;;4992997;28;20801;-82
2023/05/29 07:21:31;;;;;;;10.38;5.03;;;;;;;;;;5015366;28;20034;-82
2023/05/29 07:23:57;;;;;;;14.77;4.80;;;;;;;;;;5026755;28;20068;-79
2023/05/29 07:26:25;;;;;;;9.43;3.97;;;;;;;;;;4990636;28;20039;-81
2023/05/29 07:28:52;;;;;;;7.40;4.20;;;;;;;;;;4991884;28;20551;-83
2023/05/29 07:31:18;;;;;;;10.98;4.80;;;;;;;;;;5009791;28;20088;-83
2023/05/29 07:33:47;;;;;;;9.15;4.43;;;;;;;;;;4993633;28;20058;-83
2023/05/29 07:36:15;;;;;;;13.40;4.57;;;;;;;;;;5000694;28;20042;-81
2023/05/29 07:38:42;;;;;;;12.38;5.45;;;;;;;;;;5000651;28;20054;-80
2023/05/29 07:41:11;;;;;;;9.20;4.38;;;;;;;;;;5008603;28;20046;-80
2023/05/29 07:43:38;;;;;;;9.30;4.35;;;;;;;;;;4991753;28;20053;-84
2023/05/29 07:46:07;;;;;;;9.85;4.53;;;;;;;;;;4990282;28;20129;-84
2023/05/29 07:48:37;;;;;;;9.23;4.10;;;;;;;;;;5003451;28;20579;-81
2023/05/29 07:51:09;;;;;;;8.68;4.43;;;;;;;;;;5013291;28;20128;-82
2023/05/29 07:53:38;;;;;;;11.77;5.10;;;;;;;;;;4986545;28;20438;-83
2023/05/29 07:56:06;;;;;;;10.30;4.57;;;;;;;;;;5006555;28;20041;-82
2023/05/29 07:58:33;;;;;;;9.32;4.43;;;;;;;;;;4991748;28;20546;-81
2023/05/29 08:00:59;;;;;;;8.52;4.13;;;;;;;;;;4991962;28;20042;-84
2023/05/29 08:03:26;;;;;;;8.40;4.25;;;;;;;;;;5009212;28;20069;-80
2023/05/29 08:05:53;;;;;;;8.15;4.38;;;;;;;;;;4997542;28;20061;-81
2023/05/29 08:08:21;;;;;;;6.68;3.65;;;;;;;;;;5007836;28;20559;-82
2023/05/29 08:10:47;;;;;;;6.18;3.10;;;;;;;;;;4997501;28;20077;-81
2023/05/29 08:13:14;;;;;;;6.75;3.67;;;;;;;;;;5018830;28;20061;-81
2023/05/29 08:15:43;;;;;;;11.63;3.88;;;;;;;;;;5003740;28;20062;-81
2023/05/29 08:18:10;;;;;;;8.05;3.88;;;;;;;;;;5014381;28;20119;-82
2023/05/29 08:20:36;;;;;;;6.72;3.53;;;;;;;;;;5007862;28;20046;-84
2023/05/29 08:23:03;;;;;;;10.57;4.10;;;;;;;;;;4999621;28;20072;-80
2023/05/29 08:25:29;;;;;;;10.20;3.58;;;;;;;;;;5009212;28;20517;-81
2023/05/29 08:27:56;;;;;;;8.20;3.50;;;;;;;;;;5007285;28;20122;-84
2023/05/29 08:30:23;;;;;;;11.13;4.05;;;;;;;;;;5005899;28;20046;-82
2023/05/29 08:32:50;;;;;;;9.90;4.18;;;;;;;;;;4987929;28;20042;-81
2023/05/29 08:35:17;;;;;;;10.40;3.80;;;;;;;;;;4984483;28;20168;-81
2023/05/29 08:37:43;;;;;;;8.40;3.75;;;;;;;;;;4989672;28;20116;-82
2023/05/29 08:40:11;;;;;;;8.57;4.03;;;;;;;;;;5005934;28;20076;-81
2023/05/29 08:42:45;;;;;;;7.18;4.13;;;;;;;;;;4994818;28;20103;-84
2023/05/29 08:45:13;;;;;;;8.48;3.80;;;;;;;;;;5006175;28;20049;-84
2023/05/29 08:47:40;;;;;;;10.93;4.07;;;;;;;;;;4998852;28;20738;-81
2023/05/29 08:50:10;;;;;;;10.27;3.03;;;;;;;;;;5008129;28;20056;-82
2023/05/29 08:52:37;;;;;;;9.63;3.85;;;;;;;;;;4986915;28;20050;-80
2023/05/29 08:55:05;;;;;;;7.25;3.28;;;;;;;;;;4987261;28;20145;-79
2023/05/29 08:57:32;;;;;;;12.65;3.80;;;;;;;;;;4996105;28;20061;-82
2023/05/29 09:00:00;;;;;;;7.95;3.63;;;;;;;;;;4984863;28;20068;-79
2023/05/29 09:02:27;;;;;;;8.35;3.60;;;;;;;;;;5007049;28;20081;-81
2023/05/29 09:04:54;;;;;;;7.88;3.60;;;;;;;;;;5009994;28;20058;-80
2023/05/29 09:07:22;;;;;;;7.65;3.65;;;;;;;;;;5009310;28;20050;-84
2023/05/29 09:09:48;;;;;;;12.88;3.47;;;;;;;;;;5006509;28;20056;-81
2023/05/29 09:12:16;;;;;;;6.63;3.25;;;;;;;;;;5005215;28;20460;-82
2023/05/29 09:14:44;;;;;;;7.85;3.60;;;;;;;;;;5007099;28;20046;-79
2023/05/29 09:17:12;;;;;;;6.88;3.35;;;;;;;;;;5008611;28;20050;-79
2023/05/29 09:19:40;;;;;;;7.75;2.95;;;;;;;;;;5008256;28;20054;-81
2023/05/29 09:22:08;;;;;;;7.57;3.10;;;;;;;;;;4989420;28;20049;-81
2023/05/29 09:24:36;;;;;;;5.75;2.90;;;;;;;;;;4989270;28;20131;-82
2023/05/29 09:27:07;;;;;;;6.47;3.10;;;;;;;;;;5005218;28;20054;-81
2023/05/29 09:29:38;;;;;;;9.43;3.10;;;;;;;;;;4999758;28;20589;-79
2023/05/29 09:32:09;;;;;;;12.98;2.95;;;;;;;;;;4996301;28;20136;-82
2023/05/29 09:34:37;;;;;;;6.43;3.35;;;;;;;;;;4990026;28;20056;-80
2023/05/29 09:37:11;;;;;;;8.02;3.40;;;;;;;;;;4988882;28;20226;-82
2023/05/29 09:39:46;;;;;;;8.13;3.60;;;;;;;;;;5005625;28;20056;-82
2023/05/29 09:42:14;;;;;;;10.18;3.20;;;;;;;;;;4994601;28;20077;-81
2023/05/29 09:44:41;;;;;;;8.25;3.60;;;;;;;;;;5002759;28;20053;-84
2023/05/29 09:47:07;;;;;;;5.55;3.25;;;;;;;;;;4986736;28;20109;-84
2023/05/29 09:49:34;;;;;;;7.13;3.55;;;;;;;;;;5007711;28;20046;-81
2023/05/29 09:52:01;;;;;;;8.38;3.45;;;;;;;;;;4994226;28;20076;-83
2023/05/29 09:54:32;;;;;;;5.90;2.85;;;;;;;;;;4981033;28;20038;-85
2023/05/29 09:57:01;;;;;;;7.20;2.85;;;;;;;;;;5000186;28;20049;-82
2023/05/29 09:59:28;;;;;;;7.55;2.80;;;;;;;;;;5008998;28;20114;-77
2023/05/29 10:02:01;;;;;;;8.10;3.13;;;;;;;;;;4988414;28;20045;-77
2023/05/29 10:04:27;;;;;;;7.88;2.90;;;;;;;;;;5012732;28;20045;-79
2023/05/29 10:06:56;;;;;;;5.53;2.92;;;;;;;;;;5011321;28;20052;-80
2023/05/29 10:09:25;;;;;;;9.98;2.78;;;;;;;;;;5006943;28;20112;-76
2023/05/29 10:11:53;;;;;;;10.93;2.60;;;;;;;;;;5000203;28;20073;-77
2023/05/29 10:14:21;;;;;;;12.90;2.72;;;;;;;;;;5004795;28;20112;-77
2023/05/29 10:16:50;;;;;;;8.43;2.60;;;;;;;;;;4986594;28;20128;-77
2023/05/29 10:19:19;;;;;;;7.60;2.70;;;;;;;;;;5003571;28;20236;-75
2023/05/29 10:21:47;;;;;;;6.15;2.72;;;;;;;;;;5004146;28;20057;-76
2023/05/29 10:24:15;;;;;;;6.10;2.70;;;;;;;;;;5005250;28;20367;-75
2023/05/29 10:26:43;;;;;;;7.05;2.75;;;;;;;;;;5002988;28;20041;-76
2023/05/29 10:29:34;;;;;;;7.20;2.40;;;;;;;;;;4992776;28;20041;-75
2023/05/29 10:32:00;;;;;;;5.90;2.22;;;;;;;;;;5004071;28;20042;-76
2023/05/29 10:34:45;;;;;;;7.20;2.78;;;;;;;;;;5007465;28;20042;-76
2023/05/29 10:37:27;;;;;;;6.63;2.75;;;;;;;;;;5003347;28;20054;-77
2023/05/29 10:39:53;;;;;;;4.97;2.80;;;;;;;;;;5003482;28;20050;-74
2023/05/29 10:42:38;;;;;;;7.35;2.30;;;;;;;;;;5012307;28;20438;-82
2023/05/29 10:45:05;;;;;;;3.60;2.10;;;;;;;;;;5007899;28;20046;-79
2023/05/29 10:47:31;;;;;;;4.53;2.35;;;;;;;;;;5009844;28;20080;-84
2023/05/29 10:50:01;;;;;;;3.78;2.25;;;;;;;;;;5008841;28;20065;-79
2023/05/29 10:52:31;;;;;;;8.20;2.60;;;;;;;;;;4998394;28;20052;-82
2023/05/29 10:54:58;;;;;;;5.07;2.53;;;;;;;;;;5003373;28;20045;-80
2023/05/29 10:57:26;;;;;;;5.05;2.30;;;;;;;;;;5009191;28;20042;-81
2023/05/29 11:00:13;;;;;;;4.07;2.20;;;;;;;;;;5008032;28;20053;-82
2023/05/29 11:02:46;;;;;;;6.97;2.55;;;;;;;;;;5005643;28;20124;-81
2023/05/29 11:05:20;;;;;;;4.57;2.30;;;;;;;;;;4986917;28;20042;-82
2023/05/29 11:08:00;;;;;;;10.98;2.53;;;;;;;;;;5003134;28;20049;-83
2023/05/29 11:10:56;;;;;;;4.57;2.53;;;;;;;;;;4990916;28;20061;-81
2023/05/29 11:13:24;;;;;;;5.05;2.58;;;;;;;;;;4988133;28;20045;-81
2023/05/29 11:16:11;;;;;;;3.63;2.40;;;;;;;;;;4991563;28;20046;-83
2023/05/29 11:19:00;;;;;;;5.45;2.30;;;;;;;;;;5009270;28;20038;-79
2023/05/29 11:21:38;;;;;;;5.50;2.60;;;;;;;;;;5002446;28;20065;-80
2023/05/29 11:24:06;;;;;;;4.57;2.42;;;;;;;;;;5010533;28;20096;-79
2023/05/29 11:26:37;;;;;;;7.03;2.40;;;;;;;;;;4994651;28;20144;-80
2023/05/29 11:29:10;;;;;;;6.05;2.50;;;;;;;;;;5010235;28;20046;-81
2023/05/29 11:31:38;;;;;;;5.43;2.42;;;;;;;;;;4996682;28;20411;-79
2023/05/29 11:34:08;;;;;;;5.82;2.70;;;;;;;;;;4994947;28;20456;-80
2023/05/29 11:36:36;;;;;;;8.23;2.25;;;;;;;;;;5012228;28;20053;-84
2023/05/29 11:39:03;;;;;;;6.57;2.72;;;;;;;;;;5007943;28;20109;-79
2023/05/29 11:41:30;;;;;;;5.80;2.65;;;;;;;;;;5015910;28;20111;-80
2023/05/29 11:44:02;;;;;;;7.38;2.63;;;;;;;;;;5008833;28;20473;-81
2023/05/29 11:46:32;;;;;;;6.88;2.58;;;;;;;;;;5007280;28;20046;-78
2023/05/29 11:48:59;;;;;;;4.55;2.70;;;;;;;;;;4993646;28;20069;-78
2023/05/29 11:51:26;;;;;;;5.82;2.50;;;;;;;;;;4997292;28;20121;-81
2023/05/29 11:53:57;;;;;;;5.07;2.30;;;;;;;;;;4996794;28;20128;-84
2023/05/29 11:56:25;;;;;;;7.95;2.65;;;;;;;;;;5014546;28;20089;-81
2023/05/29 11:58:57;;;;;;;6.18;2.35;;;;;;;;;;5015941;28;20046;-81
2023/05/29 12:01:25;;;;;;;3.97;2.20;;;;;;;;;;5014572;28;20057;-81
2023/05/29 12:03:52;;;;;;;5.80;2.60;;;;;;;;;;5010823;28;20510;-82
2023/05/29 12:06:36;;;;;;;6.32;2.78;;;;;;;;;;5010049;28;20116;-78
2023/05/29 12:09:04;;;;;;;5.57;2.63;;;;;;;;;;5009799;28;20038;-80
2023/05/29 12:11:31;;;;;;;5.45;2.50;;;;;;;;;;5011267;28;20041;-83
2023/05/29 12:13:59;;;;;;;5.32;2.50;;;;;;;;;;5014131;28;20052;-81
2023/05/29 12:16:33;;;;;;;6.05;2.40;;;;;;;;;;5012003;28;20042;-83
2023/05/29 12:19:00;;;;;;;5.13;2.50;;;;;;;;;;5009846;28;20048;-83
2023/05/29 12:21:27;;;;;;;4.18;2.63;;;;;;;;;;5015799;28;20042;-82
2023/05/29 12:23:53;;;;;;;9.48;2.78;;;;;;;;;;5021984;28;20141;-81
2023/05/29 12:26:36;;;;;;;10.15;2.60;;;;;;;;;;5010331;28;20053;-78
2023/05/29 12:29:05;;;;;;;5.72;2.72;;;;;;;;;;5012979;28;20480;-82
2023/05/29 12:31:33;;;;;;;4.53;2.53;;;;;;;;;;5011770;28;20050;-81
2023/05/29 12:34:01;;;;;;;8.60;2.40;;;;;;;;;;4995766;28;20046;-82
2023/05/29 12:36:28;;;;;;;6.28;2.30;;;;;;;;;;5013135;28;20053;-81
2023/05/29 12:38:57;;;;;;;7.20;2.70;;;;;;;;;;5013065;28;20050;-80
2023/05/29 12:41:30;;;;;;;4.60;2.88;;;;;;;;;;5012921;28;20053;-80
2023/05/29 12:43:57;;;;;;;3.80;2.50;;;;;;;;;;5014885;28;20055;-80
2023/05/29 12:46:25;;;;;;;7.72;2.58;;;;;;;;;;5045584;28;20052;-81
2023/05/29 12:48:54;;;;;;;6.38;2.65;;;;;;;;;;5037546;28;20072;-82
2023/05/29 12:51:25;;;;;;;7.18;2.50;;;;;;;;;;5036189;28;20147;-83
2023/05/29 12:53:54;;;;;;;5.65;2.80;;;;;;;;;;5036756;28;20041;-83
2023/05/29 12:56:26;;;;;;;4.85;2.67;;;;;;;;;;5034361;28;20041;-81
2023/05/29 12:58:52;;;;;;;4.70;2.50;;;;;;;;;;5035198;28;20366;-81
2023/05/29 13:01:20;;;;;;;6.63;2.58;;;;;;;;;;5032908;28;20117;-81
2023/05/29 13:03:48;;;;;;;9.93;2.70;;;;;;;;;;5032482;28;20053;-80
2023/05/29 13:06:15;;;;;;;7.88;2.63;;;;;;;;;;5034770;28;20053;-82
2023/05/29 13:08:42;;;;;;;4.35;2.67;;;;;;;;;;5021916;28;20554;-80
2023/05/29 13:11:08;;;;;;;7.18;2.47;;;;;;;;;;5009295;28;20049;-80
2023/05/29 13:13:35;;;;;;;6.18;2.67;;;;;;;;;;4991921;28;20045;-79
2023/05/29 13:16:01;;;;;;;4.53;2.40;;;;;;;;;;5009443;28;20108;-79
2023/05/29 13:18:28;;;;;;;7.25;2.45;;;;;;;;;;5011155;28;20065;-80
2023/05/29 13:20:55;;;;;;;6.10;2.55;;;;;;;;;;5010493;28;20109;-79
2023/05/29 13:23:22;;;;;;;10.32;2.47;;;;;;;;;;5010223;28;20053;-80
2023/05/29 13:25:49;;;;;;;5.97;2.42;;;;;;;;;;4995673;28;20072;-79
2023/05/29 13:28:16;;;;;;;4.00;2.60;;;;;;;;;;4994935;28;20128;-80
2023/05/29 13:30:43;;;;;;;4.28;2.42;;;;;;;;;;5011655;28;20042;-80
2023/05/29 13:33:09;;;;;;;5.47;2.50;;;;;;;;;;5004461;28;20117;-78
2023/05/29 13:35:36;;;;;;;5.72;2.50;;;;;;;;;;5020522;28;20123;-80
2023/05/29 13:38:03;;;;;;;7.50;2.40;;;;;;;;;;4999999;28;20037;-82
2023/05/29 13:40:30;;;;;;;5.85;2.70;;;;;;;;;;5013304;28;20133;-82
2023/05/29 13:42:56;;;;;;;3.42;2.20;;;;;;;;;;5014608;28;20271;-81
2023/05/29 13:45:23;;;;;;;5.30;2.90;;;;;;;;;;5012295;28;20038;-83
2023/05/29 13:47:49;;;;;;;4.78;2.45;;;;;;;;;;5013902;28;20046;-80
2023/05/29 13:50:16;;;;;;;5.15;2.85;;;;;;;;;;4995930;28;20046;-79
2023/05/29 13:52:43;;;;;;;4.95;2.40;;;;;;;;;;5011226;28;20041;-80
2023/05/29 13:55:09;;;;;;;5.65;2.85;;;;;;;;;;4995994;28;20049;-79
2023/05/29 13:57:39;;;;;;;4.35;2.45;;;;;;;;;;4990989;28;20088;-80
2023/05/29 14:00:07;;;;;;;5.68;2.50;;;;;;;;;;5006926;28;20052;-80
2023/05/29 14:02:34;;;;;;;5.03;2.80;;;;;;;;;;5009123;28;20045;-82
2023/05/29 14:05:07;;;;;;;7.53;2.47;;;;;;;;;;5009867;28;20052;-81
2023/05/29 14:07:34;;;;;;;6.00;2.70;;;;;;;;;;4998571;28;20510;-81
2023/05/29 14:10:01;;;;;;;6.10;2.40;;;;;;;;;;5007960;28;20069;-79
2023/05/29 14:12:27;;;;;;;5.03;2.55;;;;;;;;;;5009017;28;20443;-81
2023/05/29 14:14:54;;;;;;;5.78;2.67;;;;;;;;;;5010777;28;20042;-80
2023/05/29 14:17:20;;;;;;;6.78;2.60;;;;;;;;;;5011545;28;20049;-82
2023/05/29 14:19:47;;;;;;;5.38;2.67;;;;;;;;;;5010007;28;20129;-81
2023/05/29 14:22:14;;;;;;;8.20;2.60;;;;;;;;;;5019880;28;20033;-81
2023/05/29 14:24:42;;;;;;;4.88;2.55;;;;;;;;;;5025555;28;20052;-82
2023/05/29 14:27:08;;;;;;;4.75;2.63;;;;;;;;;;5017076;28;20046;-81
2023/05/29 14:29:35;;;;;;;4.45;2.47;;;;;;;;;;4999517;28;20049;-84
2023/05/29 14:32:01;;;;;;;5.80;2.50;;;;;;;;;;5016585;28;20506;-82
2023/05/29 14:34:28;;;;;;;8.32;2.67;;;;;;;;;;4996897;28;20096;-84
2023/05/29 14:36:54;;;;;;;7.00;3.00;;;;;;;;;;5012442;28;20088;-81
2023/05/29 14:39:21;;;;;;;4.68;2.58;;;;;;;;;;4998567;28;20516;-82
2023/05/29 14:41:48;;;;;;;6.28;2.67;;;;;;;;;;5012726;28;20042;-82
2023/05/29 14:44:14;;;;;;;6.43;2.78;;;;;;;;;;5007291;28;20081;-81